createdAt,value
2017-05-21T00:00:26.259Z,15.25
2017-05-21T00:01:07.153Z,15.22
2017-05-21T00:01:48.043Z,15.31
2017-05-21T00:02:28.924Z,15.28
2017-05-21T00:03:09.810Z,15.28
2017-05-21T00:03:50.702Z,15.33
2017-05-21T00:04:31.586Z,15.24
2017-05-21T00:05:12.465Z,15.22
2017-05-21T00:05:53.362Z,15.21
2017-05-21T00:06:34.245Z,15.19
2017-05-21T00:07:15.134Z,15.17
2017-05-21T00:07:56.019Z,15.21
2017-05-21T00:08:36.931Z,15.18
2017-05-21T00:09:17.823Z,15.17
2017-05-21T00:09:58.711Z,15.24
2017-05-21T00:10:39.612Z,15.22
2017-05-21T00:11:20.508Z,15.14
2017-05-21T00:12:01.398Z,15.09
2017-05-21T00:12:42.294Z,15.1
2017-05-21T00:13:23.180Z,15.15
2017-05-21T00:14:04.057Z,15.24
2017-05-21T00:14:44.935Z,15.22
2017-05-21T00:15:25.831Z,15.21
2017-05-21T00:16:06.722Z,15.24
2017-05-21T00:16:47.606Z,15.03
2017-05-21T00:17:28.497Z,15.1
2017-05-21T00:18:09.414Z,15.24
2017-05-21T00:18:50.291Z,15.19
2017-05-21T00:19:31.176Z,15.22
2017-05-21T00:20:12.058Z,15.1
2017-05-21T00:20:52.972Z,15.14
2017-05-21T00:21:33.858Z,15.07
2017-05-21T00:22:14.736Z,15.11
2017-05-21T00:22:55.621Z,15.06
2017-05-21T00:23:36.511Z,15.19
2017-05-21T00:24:17.407Z,15.14
2017-05-21T00:24:58.290Z,15.18
2017-05-21T00:25:39.173Z,15.03
2017-05-21T00:26:20.051Z,15.07
2017-05-21T00:27:00.941Z,15.09
2017-05-21T00:27:41.835Z,15.15
2017-05-21T00:28:22.741Z,14.99
2017-05-21T00:29:03.657Z,14.92
2017-05-21T00:29:44.526Z,15
2017-05-21T00:30:25.420Z,14.99
2017-05-21T00:31:06.325Z,15.03
2017-05-21T00:31:47.220Z,15.04
2017-05-21T00:32:28.116Z,14.99
2017-05-21T00:33:09.006Z,14.91
2017-05-21T00:33:49.884Z,14.91
2017-05-21T00:34:30.771Z,14.85
2017-05-21T00:35:11.658Z,14.77
2017-05-21T00:35:52.540Z,14.85
2017-05-21T00:36:33.443Z,14.89
2017-05-21T00:37:14.325Z,14.84
2017-05-21T00:37:55.213Z,14.88
2017-05-21T00:38:36.090Z,14.85
2017-05-21T00:39:16.979Z,14.91
2017-05-21T00:39:57.869Z,14.99
2017-05-21T00:40:38.746Z,14.88
2017-05-21T00:41:19.620Z,14.88
2017-05-21T00:42:00.527Z,14.91
2017-05-21T00:42:41.436Z,14.89
2017-05-21T00:43:22.332Z,14.89
2017-05-21T00:44:03.238Z,14.94
2017-05-21T00:44:44.138Z,14.88
2017-05-21T00:45:25.791Z,14.94
2017-05-21T00:46:06.672Z,14.86
2017-05-21T00:46:47.577Z,14.85
2017-05-21T00:47:28.472Z,14.96
2017-05-21T00:48:09.349Z,14.91
2017-05-21T00:48:50.223Z,15.04
2017-05-21T00:49:31.111Z,14.99
2017-05-21T00:50:11.997Z,14.97
2017-05-21T00:50:52.885Z,15.06
2017-05-21T00:51:33.775Z,15.07
2017-05-21T00:52:14.666Z,14.96
2017-05-21T00:52:55.553Z,14.94
2017-05-21T00:53:36.440Z,14.99
2017-05-21T00:54:17.344Z,15.02
2017-05-21T00:54:58.208Z,14.92
2017-05-21T00:55:39.101Z,14.94
2017-05-21T00:56:19.991Z,14.97
2017-05-21T00:57:00.875Z,15
2017-05-21T00:57:41.766Z,14.92
2017-05-21T00:58:22.655Z,14.89
2017-05-21T00:59:03.544Z,14.85
2017-05-21T00:59:44.441Z,14.88
2017-05-21T01:00:25.328Z,14.86
2017-05-21T01:01:06.215Z,14.72
2017-05-21T01:01:47.102Z,14.58
2017-05-21T01:02:27.989Z,14.72
2017-05-21T01:03:08.889Z,14.63
2017-05-21T01:03:49.777Z,14.78
2017-05-21T01:04:30.659Z,14.58
2017-05-21T01:05:11.547Z,14.68
2017-05-21T01:05:53.968Z,14.6
2017-05-21T01:06:34.867Z,14.53
2017-05-21T01:07:15.751Z,14.48
2017-05-21T01:07:56.640Z,14.5
2017-05-21T01:08:37.544Z,14.5
2017-05-21T01:09:18.415Z,14.5
2017-05-21T01:09:59.347Z,14.53
2017-05-21T01:10:40.922Z,14.5
2017-05-21T01:11:21.819Z,14.41
2017-05-21T01:12:02.749Z,14.32
2017-05-21T01:12:43.637Z,14.37
2017-05-21T01:13:24.542Z,14.33
2017-05-21T01:14:05.417Z,14.36
2017-05-21T01:14:46.312Z,14.3
2017-05-21T01:15:27.197Z,14.36
2017-05-21T01:16:08.086Z,14.35
2017-05-21T01:16:48.962Z,14.23
2017-05-21T01:17:29.848Z,14.2
2017-05-21T01:18:10.736Z,14.15
2017-05-21T01:18:51.627Z,14.04
2017-05-21T01:19:32.519Z,14.07
2017-05-21T01:20:13.409Z,14.14
2017-05-21T01:20:54.301Z,14.18
2017-05-21T01:21:35.200Z,14.14
2017-05-21T01:22:16.086Z,14.1
2017-05-21T01:22:56.951Z,14.05
2017-05-21T01:23:37.845Z,14.18
2017-05-21T01:24:18.728Z,14.18
2017-05-21T01:24:59.616Z,14.1
2017-05-21T01:25:40.517Z,14.15
2017-05-21T01:26:21.401Z,14.1
2017-05-21T01:27:02.294Z,14.08
2017-05-21T01:27:43.178Z,14.05
2017-05-21T01:28:24.059Z,14.11
2017-05-21T01:29:04.949Z,14.05
2017-05-21T01:29:45.874Z,14.11
2017-05-21T01:30:26.764Z,14.12
2017-05-21T01:31:07.658Z,14.07
2017-05-21T01:31:48.550Z,14.1
2017-05-21T01:32:29.440Z,14.04
2017-05-21T01:33:10.336Z,14.11
2017-05-21T01:33:51.282Z,14.18
2017-05-21T01:34:32.168Z,14.2
2017-05-21T01:35:13.045Z,14.11
2017-05-21T01:35:53.933Z,14.15
2017-05-21T01:36:34.829Z,14.22
2017-05-21T01:37:15.716Z,14.22
2017-05-21T01:37:56.603Z,14.22
2017-05-21T01:38:37.492Z,14.15
2017-05-21T01:39:18.392Z,14.12
2017-05-21T01:39:59.266Z,14.18
2017-05-21T01:40:40.152Z,14.11
2017-05-21T01:41:21.043Z,14.07
2017-05-21T01:42:01.927Z,14.17
2017-05-21T01:42:42.790Z,14.29
2017-05-21T01:43:23.680Z,14.29
2017-05-21T01:44:04.579Z,14.25
2017-05-21T01:44:45.462Z,14.23
2017-05-21T01:45:26.341Z,14.28
2017-05-21T01:46:07.232Z,14.2
2017-05-21T01:46:48.119Z,14.22
2017-05-21T01:47:29.015Z,14.18
2017-05-21T01:48:09.885Z,14.17
2017-05-21T01:48:50.786Z,14.3
2017-05-21T01:49:31.672Z,14.26
2017-05-21T01:50:12.538Z,14.26
2017-05-21T01:50:53.419Z,14.2
2017-05-21T01:51:34.322Z,14.15
2017-05-21T01:52:15.207Z,14.17
2017-05-21T01:52:56.065Z,14.25
2017-05-21T01:53:36.978Z,14.17
2017-05-21T01:54:17.862Z,14.18
2017-05-21T01:54:58.750Z,14.08
2017-05-21T01:55:39.619Z,14.17
2017-05-21T01:56:20.508Z,14.17
2017-05-21T01:57:01.441Z,14.1
2017-05-21T01:57:42.303Z,14.08
2017-05-21T01:58:23.188Z,14.14
2017-05-21T01:59:04.092Z,14.04
2017-05-21T01:59:45.001Z,14.07
2017-05-21T02:00:25.888Z,14.11
2017-05-21T02:01:06.779Z,14.1
2017-05-21T02:01:47.648Z,14.1
2017-05-21T02:02:28.542Z,14.12
2017-05-21T02:03:09.449Z,14.18
2017-05-21T02:03:50.318Z,14.07
2017-05-21T02:04:31.213Z,14.05
2017-05-21T02:05:12.099Z,14.17
2017-05-21T02:05:52.982Z,14.18
2017-05-21T02:06:33.867Z,14.11
2017-05-21T02:07:15.593Z,14.12
2017-05-21T02:07:55.709Z,14.04
2017-05-21T02:09:44.924Z,14.04
2017-05-21T02:10:25.800Z,14.03
2017-05-21T02:11:06.686Z,14.1
2017-05-21T02:11:47.580Z,14.11
2017-05-21T02:12:28.460Z,14.17
2017-05-21T02:13:09.355Z,14.15
2017-05-21T02:13:50.291Z,14.22
2017-05-21T02:14:31.143Z,14.17
2017-05-21T02:15:12.046Z,14.15
2017-05-21T02:15:52.942Z,14.1
2017-05-21T02:16:33.833Z,14.07
2017-05-21T02:17:14.732Z,14.14
2017-05-21T02:17:55.622Z,14.17
2017-05-21T02:18:36.495Z,14.11
2017-05-21T02:19:17.391Z,14.04
2017-05-21T02:19:58.283Z,13.97
2017-05-21T02:20:39.164Z,14.08
2017-05-21T02:21:20.066Z,13.95
2017-05-21T02:22:00.957Z,13.87
2017-05-21T02:22:41.849Z,13.93
2017-05-21T02:23:22.743Z,13.97
2017-05-21T02:24:03.636Z,13.97
2017-05-21T02:24:44.513Z,14.05
2017-05-21T02:25:25.398Z,14.03
2017-05-21T02:26:06.296Z,13.96
2017-05-21T02:26:47.182Z,13.93
2017-05-21T02:27:28.064Z,13.97
2017-05-21T02:28:08.953Z,13.96
2017-05-21T02:28:49.842Z,13.95
2017-05-21T02:29:30.724Z,14
2017-05-21T02:30:11.614Z,13.96
2017-05-21T02:30:52.528Z,13.97
2017-05-21T02:31:33.409Z,13.89
2017-05-21T02:32:14.288Z,13.9
2017-05-21T02:32:55.163Z,13.97
2017-05-21T02:33:36.057Z,13.92
2017-05-21T02:34:16.935Z,13.92
2017-05-21T02:34:57.840Z,13.97
2017-05-21T02:35:38.715Z,13.95
2017-05-21T02:36:19.599Z,13.96
2017-05-21T02:37:00.478Z,13.99
2017-05-21T02:37:41.374Z,14
2017-05-21T02:38:22.253Z,13.95
2017-05-21T02:39:03.147Z,13.92
2017-05-21T02:39:44.032Z,14.03
2017-05-21T02:40:24.924Z,14.03
2017-05-21T02:41:05.809Z,14.08
2017-05-21T02:41:46.708Z,14
2017-05-21T02:42:27.593Z,14.1
2017-05-21T02:43:08.475Z,14.12
2017-05-21T02:43:49.363Z,14.07
2017-05-21T02:44:30.255Z,14.11
2017-05-21T02:45:11.149Z,14.12
2017-05-21T02:45:52.036Z,13.99
2017-05-21T02:46:32.910Z,14.03
2017-05-21T02:47:13.798Z,14.07
2017-05-21T02:47:54.709Z,14.07
2017-05-21T02:48:35.598Z,14.03
2017-05-21T02:49:16.479Z,13.92
2017-05-21T02:49:57.363Z,13.95
2017-05-21T02:50:38.246Z,13.97
2017-05-21T02:51:19.126Z,14.05
2017-05-21T02:52:00.011Z,13.96
2017-05-21T02:52:40.936Z,13.97
2017-05-21T02:53:21.819Z,13.97
2017-05-21T02:54:02.713Z,13.92
2017-05-21T02:54:43.600Z,13.97
2017-05-21T02:55:24.481Z,13.93
2017-05-21T02:56:05.373Z,13.83
2017-05-21T02:56:46.261Z,13.89
2017-05-21T02:57:27.149Z,13.9
2017-05-21T02:58:08.046Z,13.85
2017-05-21T02:58:48.926Z,13.93
2017-05-21T02:59:29.830Z,13.79
2017-05-21T03:00:10.715Z,13.81
2017-05-21T03:00:51.613Z,13.81
2017-05-21T03:01:32.508Z,13.83
2017-05-21T03:02:13.399Z,13.83
2017-05-21T03:02:54.291Z,13.9
2017-05-21T03:03:35.181Z,13.93
2017-05-21T03:04:16.070Z,13.95
2017-05-21T03:04:56.966Z,13.92
2017-05-21T03:05:37.853Z,13.9
2017-05-21T03:06:18.742Z,13.93
2017-05-21T03:06:59.622Z,13.77
2017-05-21T03:07:40.508Z,13.89
2017-05-21T03:08:21.396Z,13.83
2017-05-21T03:09:02.294Z,13.65
2017-05-21T03:09:43.181Z,13.72
2017-05-21T03:10:24.064Z,13.77
2017-05-21T03:11:04.953Z,13.7
2017-05-21T03:11:45.849Z,13.68
2017-05-21T03:12:26.727Z,13.83
2017-05-21T03:13:07.617Z,13.89
2017-05-21T03:13:48.506Z,13.79
2017-05-21T03:14:29.414Z,13.83
2017-05-21T03:15:10.305Z,13.83
2017-05-21T03:15:52.051Z,13.81
2017-05-21T03:16:32.955Z,13.81
2017-05-21T03:17:13.838Z,13.83
2017-05-21T03:17:54.733Z,13.78
2017-05-21T03:18:35.633Z,13.83
2017-05-21T03:19:16.517Z,13.79
2017-05-21T03:19:57.403Z,13.85
2017-05-21T03:20:38.274Z,13.75
2017-05-21T03:21:19.166Z,13.85
2017-05-21T03:23:12.593Z,13.87
2017-05-21T03:23:53.485Z,13.7
2017-05-21T03:24:34.374Z,13.74
2017-05-21T03:25:15.250Z,13.79
2017-05-21T03:25:56.133Z,13.75
2017-05-21T03:26:37.026Z,13.68
2017-05-21T03:27:17.925Z,13.68
2017-05-21T03:27:58.805Z,13.67
2017-05-21T03:28:39.692Z,13.67
2017-05-21T03:29:20.575Z,13.57
2017-05-21T03:30:01.464Z,13.53
2017-05-21T03:30:42.345Z,13.53
2017-05-21T03:31:23.228Z,13.54
2017-05-21T03:32:04.119Z,13.57
2017-05-21T03:32:44.993Z,13.49
2017-05-21T03:33:25.884Z,13.49
2017-05-21T03:34:06.770Z,13.44
2017-05-21T03:34:47.660Z,13.39
2017-05-21T03:35:28.556Z,13.44
2017-05-21T03:36:09.456Z,13.39
2017-05-21T03:36:50.347Z,13.49
2017-05-21T03:37:31.235Z,13.57
2017-05-21T03:38:12.130Z,13.52
2017-05-21T03:38:53.024Z,13.47
2017-05-21T03:39:33.902Z,13.49
2017-05-21T03:40:14.813Z,13.49
2017-05-21T03:40:55.680Z,13.53
2017-05-21T03:41:36.562Z,13.53
2017-05-21T03:42:17.445Z,13.57
2017-05-21T03:42:58.334Z,13.53
2017-05-21T03:43:39.206Z,13.68
2017-05-21T03:44:20.093Z,13.68
2017-05-21T03:45:00.982Z,13.65
2017-05-21T03:45:41.860Z,13.72
2017-05-21T03:46:22.747Z,13.62
2017-05-21T03:47:03.627Z,13.65
2017-05-21T03:47:44.513Z,13.63
2017-05-21T03:48:25.397Z,13.62
2017-05-21T03:49:06.277Z,13.78
2017-05-21T03:49:47.164Z,13.72
2017-05-21T03:50:28.049Z,13.67
2017-05-21T03:51:08.930Z,13.67
2017-05-21T03:51:49.837Z,13.7
2017-05-21T03:52:30.724Z,13.72
2017-05-21T03:53:11.617Z,13.71
2017-05-21T03:53:52.517Z,13.7
2017-05-21T03:54:33.405Z,13.7
2017-05-21T03:55:14.355Z,13.65
2017-05-21T03:55:55.240Z,13.63
2017-05-21T03:56:36.120Z,13.63
2017-05-21T03:57:17.004Z,13.72
2017-05-21T03:57:57.890Z,13.57
2017-05-21T03:58:38.777Z,13.63
2017-05-21T03:59:19.669Z,13.67
2017-05-21T04:00:00.569Z,13.72
2017-05-21T04:00:41.454Z,13.7
2017-05-21T04:01:22.340Z,13.68
2017-05-21T04:02:03.222Z,13.65
2017-05-21T04:02:44.117Z,13.71
2017-05-21T04:03:25.021Z,13.6
2017-05-21T04:04:05.913Z,13.63
2017-05-21T04:04:46.805Z,13.56
2017-05-21T04:05:27.695Z,13.65
2017-05-21T04:06:08.591Z,13.57
2017-05-21T04:06:49.481Z,13.74
2017-05-21T04:07:30.372Z,13.68
2017-05-21T04:08:11.255Z,13.7
2017-05-21T04:08:52.145Z,13.71
2017-05-21T04:09:33.037Z,13.72
2017-05-21T04:10:13.922Z,13.92
2017-05-21T04:10:54.816Z,13.78
2017-05-21T04:11:35.714Z,13.7
2017-05-21T04:12:16.605Z,13.77
2017-05-21T04:12:57.494Z,13.65
2017-05-21T04:13:38.392Z,13.72
2017-05-21T04:14:19.268Z,13.71
2017-05-21T04:15:00.143Z,13.65
2017-05-21T04:15:41.027Z,13.72
2017-05-21T04:16:21.924Z,13.7
2017-05-21T04:17:02.808Z,13.77
2017-05-21T04:17:43.767Z,13.67
2017-05-21T04:18:24.609Z,13.74
2017-05-21T04:19:05.503Z,13.71
2017-05-21T04:19:46.402Z,13.57
2017-05-21T04:20:27.308Z,13.54
2017-05-21T04:21:08.202Z,13.63
2017-05-21T04:21:49.091Z,13.62
2017-05-21T04:22:29.973Z,13.65
2017-05-21T04:23:10.851Z,13.65
2017-05-21T04:23:51.737Z,13.67
2017-05-21T04:24:32.637Z,13.65
2017-05-21T04:25:13.511Z,13.7
2017-05-21T04:25:54.404Z,13.68
2017-05-21T04:26:35.296Z,13.71
2017-05-21T04:27:16.182Z,13.71
2017-05-21T04:27:57.077Z,13.75
2017-05-21T04:28:37.968Z,13.68
2017-05-21T04:29:18.847Z,13.74
2017-05-21T04:29:59.754Z,13.81
2017-05-21T04:30:40.638Z,13.7
2017-05-21T04:31:21.525Z,13.65
2017-05-21T04:32:02.408Z,13.72
2017-05-21T04:32:43.305Z,13.71
2017-05-21T04:33:24.192Z,13.62
2017-05-21T04:34:05.077Z,13.74
2017-05-21T04:34:45.967Z,13.75
2017-05-21T04:35:26.865Z,13.75
2017-05-21T04:36:07.759Z,13.77
2017-05-21T04:36:48.645Z,13.78
2017-05-21T04:37:29.561Z,13.87
2017-05-21T04:38:10.464Z,13.83
2017-05-21T04:38:51.330Z,13.86
2017-05-21T04:39:32.220Z,13.79
2017-05-21T04:40:13.104Z,13.89
2017-05-21T04:40:53.990Z,13.95
2017-05-21T04:41:34.877Z,13.95
2017-05-21T04:42:15.770Z,13.95
2017-05-21T04:42:56.646Z,13.83
2017-05-21T04:43:37.539Z,13.81
2017-05-21T04:44:18.434Z,13.89
2017-05-21T04:44:59.325Z,13.95
2017-05-21T04:45:40.217Z,13.99
2017-05-21T04:46:21.105Z,13.9
2017-05-21T04:47:01.992Z,13.92
2017-05-21T04:47:42.880Z,13.93
2017-05-21T04:48:23.772Z,13.89
2017-05-21T04:49:04.664Z,13.95
2017-05-21T04:49:45.555Z,13.92
2017-05-21T04:50:26.447Z,13.85
2017-05-21T04:51:07.342Z,13.96
2017-05-21T04:51:48.236Z,13.9
2017-05-21T04:52:29.120Z,13.95
2017-05-21T04:53:10.009Z,13.77
2017-05-21T04:53:50.909Z,13.85
2017-05-21T04:54:31.796Z,14
2017-05-21T04:55:12.688Z,14.04
2017-05-21T04:55:53.579Z,14.03
2017-05-21T04:56:34.488Z,14.1
2017-05-21T04:57:15.381Z,14.07
2017-05-21T04:57:56.274Z,13.93
2017-05-21T04:58:37.165Z,13.99
2017-05-21T04:59:18.053Z,14.14
2017-05-21T04:59:58.935Z,14.22
2017-05-21T05:00:39.837Z,14.25
2017-05-21T05:01:20.713Z,14.12
2017-05-21T05:02:01.591Z,14.11
2017-05-21T05:02:42.484Z,14.07
2017-05-21T05:03:23.385Z,14.08
2017-05-21T05:04:04.280Z,14.11
2017-05-21T05:04:45.172Z,14.11
2017-05-21T05:05:26.061Z,14.2
2017-05-21T05:06:06.937Z,14.33
2017-05-21T05:06:47.821Z,14.3
2017-05-21T05:07:28.711Z,14.33
2017-05-21T05:08:09.602Z,14.36
2017-05-21T05:08:50.500Z,14.37
2017-05-21T05:09:31.387Z,14.29
2017-05-21T05:10:12.271Z,14.35
2017-05-21T05:10:53.159Z,14.35
2017-05-21T05:11:34.053Z,14.36
2017-05-21T05:12:14.941Z,14.48
2017-05-21T05:12:55.865Z,14.55
2017-05-21T05:13:36.760Z,14.6
2017-05-21T05:14:17.643Z,14.47
2017-05-21T05:14:58.536Z,14.54
2017-05-21T05:15:39.480Z,14.53
2017-05-21T05:16:20.365Z,14.55
2017-05-21T05:17:01.259Z,14.51
2017-05-21T05:17:42.190Z,14.55
2017-05-21T05:18:23.090Z,14.54
2017-05-21T05:19:03.972Z,14.58
2017-05-21T05:19:44.860Z,14.51
2017-05-21T05:20:25.753Z,14.51
2017-05-21T05:21:06.678Z,14.59
2017-05-21T05:21:47.571Z,14.59
2017-05-21T05:22:28.466Z,14.58
2017-05-21T05:23:09.353Z,14.58
2017-05-21T05:23:50.241Z,14.59
2017-05-21T05:24:31.150Z,14.6
2017-05-21T05:25:12.038Z,14.68
2017-05-21T05:25:52.967Z,14.68
2017-05-21T05:26:33.845Z,14.63
2017-05-21T05:27:14.736Z,14.7
2017-05-21T05:27:55.645Z,14.78
2017-05-21T05:28:36.519Z,14.77
2017-05-21T05:29:17.409Z,14.82
2017-05-21T05:29:58.335Z,14.79
2017-05-21T05:30:39.190Z,14.77
2017-05-21T05:31:20.300Z,14.91
2017-05-21T05:32:01.093Z,14.96
2017-05-21T05:32:41.973Z,15.04
2017-05-21T05:33:22.860Z,14.92
2017-05-21T05:34:03.750Z,14.97
2017-05-21T05:34:44.648Z,14.99
2017-05-21T05:35:25.538Z,15
2017-05-21T05:36:06.428Z,14.88
2017-05-21T05:36:47.328Z,14.99
2017-05-21T05:37:28.214Z,15.02
2017-05-21T05:38:09.098Z,15.06
2017-05-21T05:38:49.984Z,15.14
2017-05-21T05:39:30.876Z,15.19
2017-05-21T05:40:11.777Z,15.15
2017-05-21T05:40:52.672Z,15.07
2017-05-21T05:41:33.563Z,15.18
2017-05-21T05:42:14.475Z,15.14
2017-05-21T05:42:55.355Z,15.19
2017-05-21T05:43:36.245Z,15.31
2017-05-21T05:44:17.132Z,15.19
2017-05-21T05:44:58.023Z,15.28
2017-05-21T05:45:38.896Z,15.24
2017-05-21T05:46:19.776Z,15.39
2017-05-21T05:47:00.681Z,15.25
2017-05-21T05:47:41.561Z,15.33
2017-05-21T05:48:22.438Z,15.28
2017-05-21T05:49:03.354Z,15.37
2017-05-21T05:49:44.249Z,15.37
2017-05-21T05:50:25.138Z,15.44
2017-05-21T05:51:06.029Z,15.64
2017-05-21T05:51:46.924Z,15.43
2017-05-21T05:52:27.821Z,15.44
2017-05-21T05:53:08.704Z,15.52
2017-05-21T05:53:49.591Z,15.61
2017-05-21T05:54:30.489Z,15.62
2017-05-21T05:55:11.372Z,15.49
2017-05-21T05:55:52.262Z,15.46
2017-05-21T05:56:33.159Z,15.54
2017-05-21T05:57:14.052Z,15.68
2017-05-21T05:57:54.937Z,15.61
2017-05-21T05:58:35.890Z,15.61
2017-05-21T05:59:16.747Z,15.49
2017-05-21T05:59:57.650Z,15.58
2017-05-21T06:00:38.529Z,15.52
2017-05-21T06:01:19.419Z,15.52
2017-05-21T06:02:00.301Z,15.67
2017-05-21T06:02:41.201Z,15.75
2017-05-21T06:03:22.080Z,15.98
2017-05-21T06:04:02.976Z,16
2017-05-21T06:04:43.858Z,16.08
2017-05-21T06:05:24.756Z,16.1
2017-05-21T06:06:05.650Z,15.94
2017-05-21T06:06:46.547Z,15.65
2017-05-21T06:07:27.444Z,15.55
2017-05-21T06:08:08.328Z,15.64
2017-05-21T06:08:49.213Z,15.67
2017-05-21T06:09:30.107Z,15.67
2017-05-21T06:10:10.995Z,15.73
2017-05-21T06:10:51.901Z,15.72
2017-05-21T06:11:32.792Z,15.73
2017-05-21T06:12:13.679Z,15.84
2017-05-21T06:12:54.564Z,16.01
2017-05-21T06:13:35.475Z,16.04
2017-05-21T06:14:16.397Z,16.21
2017-05-21T06:14:57.279Z,16.39
2017-05-21T06:15:38.167Z,16.29
2017-05-21T06:16:19.058Z,16.35
2017-05-21T06:16:59.971Z,16.26
2017-05-21T06:17:40.883Z,16.46
2017-05-21T06:18:21.777Z,16.39
2017-05-21T06:19:02.665Z,16.74
2017-05-21T06:19:43.554Z,17.16
2017-05-21T06:20:24.457Z,17.51
2017-05-21T06:21:05.351Z,17.89
2017-05-21T06:21:46.246Z,18.03
2017-05-21T06:22:27.835Z,18.05
2017-05-21T06:23:08.739Z,18.28
2017-05-21T06:23:49.623Z,18.11
2017-05-21T06:24:30.521Z,18.37
2017-05-21T06:25:11.413Z,18.73
2017-05-21T06:25:52.313Z,18.9
2017-05-21T06:26:33.211Z,19.31
2017-05-21T06:27:14.114Z,19.11
2017-05-21T06:27:55.006Z,19.59
2017-05-21T06:28:35.895Z,20.18
2017-05-21T06:29:16.806Z,20.18
2017-05-21T06:29:57.729Z,20.52
2017-05-21T06:30:38.600Z,21.14
2017-05-21T06:31:19.499Z,21.36
2017-05-21T06:32:00.399Z,21.88
2017-05-21T06:32:41.288Z,22.1
2017-05-21T06:33:22.198Z,20.99
2017-05-21T06:34:03.145Z,20.52
2017-05-21T06:34:43.992Z,20.84
2017-05-21T06:35:24.882Z,21.43
2017-05-21T06:36:05.784Z,21.98
2017-05-21T06:36:46.706Z,22.25
2017-05-21T06:37:27.591Z,22.2
2017-05-21T06:38:08.492Z,21.21
2017-05-21T06:38:49.386Z,20.93
2017-05-21T06:39:30.305Z,20.65
2017-05-21T06:40:11.214Z,20.6
2017-05-21T06:40:52.123Z,19.54
2017-05-21T06:41:33.037Z,19.54
2017-05-21T06:42:13.939Z,19.07
2017-05-21T06:42:54.835Z,18.93
2017-05-21T06:43:35.735Z,19.64
2017-05-21T06:44:16.646Z,20.92
2017-05-21T06:44:57.551Z,21.7
2017-05-21T06:45:38.460Z,22.53
2017-05-21T06:46:19.375Z,22.06
2017-05-21T06:47:00.285Z,21.14
2017-05-21T06:47:41.196Z,21.72
2017-05-21T06:48:22.115Z,20.85
2017-05-21T06:49:03.017Z,21.21
2017-05-21T06:49:43.920Z,21.2
2017-05-21T06:50:24.888Z,21.42
2017-05-21T06:51:05.806Z,20.96
2017-05-21T06:51:46.718Z,21.03
2017-05-21T06:52:27.614Z,20.96
2017-05-21T06:53:08.536Z,21.27
2017-05-21T06:53:49.426Z,22.28
2017-05-21T06:54:30.330Z,22.94
2017-05-21T06:55:11.224Z,23.06
2017-05-21T06:55:52.131Z,22.13
2017-05-21T06:56:33.033Z,22.13
2017-05-21T06:57:13.922Z,23.03
2017-05-21T06:57:54.851Z,22.98
2017-05-21T06:58:35.754Z,23.43
2017-05-21T06:59:16.691Z,23.1
2017-05-21T06:59:57.558Z,23.55
2017-05-21T07:00:38.463Z,23.12
2017-05-21T07:01:19.365Z,23.25
2017-05-21T07:02:00.291Z,23.76
2017-05-21T07:02:41.188Z,22.28
2017-05-21T07:03:22.099Z,21.75
2017-05-21T07:04:03.006Z,22.6
2017-05-21T07:04:43.917Z,22.96
2017-05-21T07:05:24.825Z,22.8
2017-05-21T07:06:05.732Z,21.75
2017-05-21T07:06:46.645Z,21.33
2017-05-21T07:07:27.547Z,22.1
2017-05-21T07:08:08.449Z,23.17
2017-05-21T07:08:49.349Z,22.26
2017-05-21T07:09:30.326Z,22.7
2017-05-21T07:10:11.240Z,23.17
2017-05-21T07:10:52.142Z,23.46
2017-05-21T07:11:33.028Z,23.99
2017-05-21T07:12:13.944Z,24.17
2017-05-21T07:12:54.853Z,23.76
2017-05-21T07:13:35.752Z,23.87
2017-05-21T07:14:16.675Z,24.18
2017-05-21T07:14:57.576Z,24.05
2017-05-21T07:15:38.481Z,23.4
2017-05-21T07:16:19.391Z,22.94
2017-05-21T07:17:00.293Z,22.44
2017-05-21T07:17:41.209Z,22.08
2017-05-21T07:18:22.122Z,21.36
2017-05-21T07:19:03.026Z,21.77
2017-05-21T07:19:43.941Z,22.08
2017-05-21T07:20:24.848Z,21.89
2017-05-21T07:21:05.758Z,21.89
2017-05-21T07:21:46.669Z,22.06
2017-05-21T07:22:27.572Z,22.69
2017-05-21T07:23:08.483Z,22.76
2017-05-21T07:23:49.393Z,22.25
2017-05-21T07:24:30.301Z,22.44
2017-05-21T07:25:11.209Z,22.66
2017-05-21T07:25:52.120Z,22.8
2017-05-21T07:26:33.035Z,23.28
2017-05-21T07:27:13.939Z,23.73
2017-05-21T07:27:54.849Z,23.41
2017-05-21T07:28:35.757Z,22.6
2017-05-21T07:29:16.665Z,21.73
2017-05-21T07:29:57.572Z,21.72
2017-05-21T07:30:38.479Z,22.26
2017-05-21T07:31:19.390Z,22.18
2017-05-21T07:32:00.303Z,23.17
2017-05-21T07:32:41.202Z,22.87
2017-05-21T07:33:22.111Z,22.35
2017-05-21T07:34:03.021Z,22.93
2017-05-21T07:34:43.910Z,22.73
2017-05-21T07:35:24.819Z,22.43
2017-05-21T07:36:05.728Z,22.7
2017-05-21T07:36:46.632Z,23
2017-05-21T07:37:27.545Z,23.31
2017-05-21T07:38:08.455Z,23.47
2017-05-21T07:38:49.350Z,23.09
2017-05-21T07:39:30.259Z,22.73
2017-05-21T07:40:11.161Z,21.96
2017-05-21T07:40:52.086Z,22.41
2017-05-21T07:41:32.979Z,22.9
2017-05-21T07:42:13.890Z,23.58
2017-05-21T07:42:54.787Z,23.58
2017-05-21T07:43:35.697Z,24.1
2017-05-21T07:44:16.622Z,23.62
2017-05-21T07:44:57.526Z,22.81
2017-05-21T07:45:38.433Z,22.62
2017-05-21T07:46:19.335Z,23.25
2017-05-21T07:47:00.254Z,23.68
2017-05-21T07:47:41.160Z,23.27
2017-05-21T07:48:22.068Z,23.76
2017-05-21T07:49:02.984Z,24.35
2017-05-21T07:49:43.878Z,24.7
2017-05-21T07:50:24.809Z,24.32
2017-05-21T07:51:05.712Z,24.29
2017-05-21T07:51:46.590Z,23.87
2017-05-21T07:52:27.493Z,23.02
2017-05-21T07:53:08.397Z,23.37
2017-05-21T07:53:49.297Z,23.87
2017-05-21T07:54:30.191Z,24.1
2017-05-21T07:55:11.075Z,23.73
2017-05-21T07:55:51.968Z,24.05
2017-05-21T07:56:32.875Z,23.47
2017-05-21T07:57:13.793Z,22.68
2017-05-21T07:57:54.681Z,22.85
2017-05-21T07:58:35.589Z,23.13
2017-05-21T07:59:16.495Z,22.69
2017-05-21T07:59:57.411Z,22.84
2017-05-21T08:00:38.328Z,22.96
2017-05-21T08:01:19.213Z,23.12
2017-05-21T08:02:00.107Z,22.83
2017-05-21T08:02:41.017Z,23.51
2017-05-21T08:03:21.950Z,23.91
2017-05-21T08:04:02.878Z,23.37
2017-05-21T08:04:43.807Z,22.5
2017-05-21T08:05:24.717Z,23.18
2017-05-21T08:06:05.638Z,22.8
2017-05-21T08:06:46.582Z,22.41
2017-05-21T08:07:27.498Z,23.13
2017-05-21T08:08:08.398Z,24.02
2017-05-21T08:08:49.299Z,24.55
2017-05-21T08:09:30.208Z,24.55
2017-05-21T08:10:11.145Z,23.56
2017-05-21T08:10:52.051Z,23.47
2017-05-21T08:11:32.958Z,22.83
2017-05-21T08:12:13.868Z,22.83
2017-05-21T08:12:54.784Z,22.07
2017-05-21T08:13:35.721Z,21.4
2017-05-21T08:14:16.626Z,21.42
2017-05-21T08:14:57.534Z,21.69
2017-05-21T08:15:38.442Z,22.57
2017-05-21T08:16:19.358Z,22.43
2017-05-21T08:17:00.270Z,21.76
2017-05-21T08:17:41.179Z,21.46
2017-05-21T08:18:22.085Z,21.92
2017-05-21T08:19:02.983Z,21.95
2017-05-21T08:19:43.890Z,22.69
2017-05-21T08:20:24.814Z,22.51
2017-05-21T08:21:05.715Z,22.84
2017-05-21T08:21:46.623Z,23.13
2017-05-21T08:22:27.516Z,23.54
2017-05-21T08:23:08.429Z,23.68
2017-05-21T08:23:49.345Z,23.62
2017-05-21T08:24:30.259Z,24.5
2017-05-21T08:25:11.169Z,25.25
2017-05-21T08:25:52.078Z,24.78
2017-05-21T08:26:32.980Z,25.53
2017-05-21T08:27:13.905Z,24.74
2017-05-21T08:27:54.816Z,24.43
2017-05-21T08:28:35.717Z,24.14
2017-05-21T08:29:16.620Z,22.81
2017-05-21T08:29:57.533Z,22.48
2017-05-21T08:30:38.415Z,22.55
2017-05-21T08:31:19.349Z,23.51
2017-05-21T08:32:00.254Z,24.08
2017-05-21T08:32:41.197Z,23.23
2017-05-21T08:33:22.111Z,22.81
2017-05-21T08:34:03.009Z,22.88
2017-05-21T08:34:43.925Z,23.84
2017-05-21T08:35:24.836Z,24.89
2017-05-21T08:36:05.749Z,24.38
2017-05-21T08:36:46.659Z,23.92
2017-05-21T08:37:27.564Z,23.27
2017-05-21T08:38:08.477Z,23.24
2017-05-21T08:38:49.406Z,22.72
2017-05-21T08:39:30.270Z,22.81
2017-05-21T08:40:11.172Z,23.27
2017-05-21T08:40:52.078Z,22.69
2017-05-21T08:41:32.994Z,23.21
2017-05-21T08:42:13.904Z,23.62
2017-05-21T08:42:54.826Z,23.41
2017-05-21T08:43:35.743Z,22.87
2017-05-21T08:44:16.665Z,22.32
2017-05-21T08:44:57.581Z,22.85
2017-05-21T08:45:38.502Z,23.55
2017-05-21T08:46:19.420Z,23.2
2017-05-21T08:47:00.347Z,23.73
2017-05-21T08:47:41.263Z,24.03
2017-05-21T08:48:22.184Z,24.65
2017-05-21T08:49:03.106Z,25.63
2017-05-21T08:49:44.029Z,25.29
2017-05-21T08:50:24.985Z,25.72
2017-05-21T08:51:05.898Z,24.61